createdAt,value
2018-09-15T00:01:41.341Z,73.28
2018-09-15T00:04:10.114Z,72.35
2018-09-15T00:06:38.349Z,73.35
2018-09-15T00:09:09.169Z,72.91
2018-09-15T00:11:38.060Z,72.38
2018-09-15T00:14:06.648Z,72.31
2018-09-15T00:16:35.201Z,72.77
2018-09-15T00:19:03.788Z,72.91
2018-09-15T00:21:32.101Z,73.75
2018-09-15T00:24:00.304Z,74.40
2018-09-15T00:26:29.162Z,73.48
2018-09-15T00:28:57.713Z,73.84
2018-09-15T00:31:26.266Z,74.02
2018-09-15T00:33:54.776Z,74.78
2018-09-15T00:36:23.638Z,74.88
2018-09-15T00:38:53.167Z,74.84
2018-09-15T00:41:21.490Z,74.54
2018-09-15T00:43:49.911Z,75.72
2018-09-15T00:46:18.536Z,75.49
2018-09-15T00:48:47.400Z,75.62
2018-09-15T00:51:15.658Z,76.05
2018-09-15T00:53:44.755Z,77.24
2018-09-15T00:56:12.974Z,77.44
2018-09-15T00:58:41.456Z,77.82
2018-09-15T01:01:09.711Z,77.94
2018-09-15T01:03:38.419Z,78.30
2018-09-15T01:06:06.725Z,79.07
2018-09-15T01:08:35.222Z,78.76
2018-09-15T01:11:03.946Z,79.05
2018-09-15T01:13:32.703Z,79.00
2018-09-15T01:16:00.963Z,78.75
2018-09-15T01:18:29.770Z,78.68
2018-09-15T01:20:58.826Z,78.61
2018-09-15T01:23:27.666Z,78.72
2018-09-15T01:25:56.028Z,77.75
2018-09-15T01:28:24.491Z,78.73
2018-09-15T01:30:52.876Z,76.75
2018-09-15T01:33:21.201Z,77.03
2018-09-15T01:35:49.914Z,75.67
2018-09-15T01:38:18.430Z,75.67
2018-09-15T01:40:46.617Z,75.33
2018-09-15T01:43:15.152Z,75.27
2018-09-15T01:45:43.735Z,75.25
2018-09-15T01:48:12.502Z,75.70
2018-09-15T01:50:40.766Z,75.24
2018-09-15T01:53:09.333Z,75.51
2018-09-15T01:55:37.617Z,75.96
2018-09-15T01:58:06.405Z,76.20
2018-09-15T02:00:34.939Z,75.47
2018-09-15T02:03:05.387Z,75.17
2018-09-15T02:05:34.924Z,76.02
2018-09-15T02:08:03.200Z,76.18
2018-09-15T02:10:31.801Z,75.78
2018-09-15T02:13:00.334Z,75.48
2018-09-15T02:15:28.570Z,75.80
2018-09-15T02:17:56.886Z,76.30
2018-09-15T02:20:25.123Z,76.06
2018-09-15T02:22:53.875Z,75.33
2018-09-15T02:25:22.638Z,76.89
2018-09-15T02:27:50.813Z,77.25
2018-09-15T02:30:19.115Z,77.90
2018-09-15T02:32:47.880Z,77.41
2018-09-15T02:35:16.098Z,77.32
2018-09-15T02:37:44.330Z,76.97
2018-09-15T02:40:12.639Z,77.53
2018-09-15T02:42:40.876Z,78.14
2018-09-15T02:45:09.705Z,78.15
2018-09-15T02:47:38.151Z,77.71
2018-09-15T02:50:07.113Z,77.81
2018-09-15T02:52:35.320Z,77.74
2018-09-15T02:55:04.790Z,78.38
2018-09-15T02:57:33.229Z,77.92
2018-09-15T03:00:01.867Z,77.77
2018-09-15T03:02:30.953Z,78.38
2018-09-15T03:04:59.768Z,78.07
2018-09-15T03:07:27.984Z,78.12
2018-09-15T03:09:56.367Z,77.93
2018-09-15T03:12:25.523Z,77.61
2018-09-15T03:14:54.000Z,77.93
2018-09-15T03:17:22.454Z,78.63
2018-09-15T03:19:50.769Z,78.90
2018-09-15T03:22:19.079Z,78.35
2018-09-15T03:24:47.558Z,79.16
2018-09-15T03:27:16.278Z,78.46
2018-09-15T03:29:44.821Z,78.35
2018-09-15T03:32:14.306Z,77.55
2018-09-15T03:34:42.593Z,78.19
2018-09-15T03:37:11.052Z,78.36
2018-09-15T03:39:39.608Z,78.21
2018-09-15T03:42:08.157Z,77.89
2018-09-15T03:44:37.081Z,77.87
2018-09-15T03:47:05.682Z,77.45
2018-09-15T03:49:33.904Z,77.20
2018-09-15T03:52:02.431Z,77.34
2018-09-15T03:54:30.664Z,76.95
2018-09-15T03:56:59.041Z,76.95
2018-09-15T03:59:27.586Z,77.08
2018-09-15T04:01:55.779Z,77.13
2018-09-15T04:04:24.859Z,77.31
2018-09-15T04:06:53.276Z,77.40
2018-09-15T04:09:21.472Z,77.18
2018-09-15T04:11:49.923Z,77.45
2018-09-15T04:14:18.375Z,77.36
2018-09-15T04:16:46.621Z,77.46
2018-09-15T04:19:14.885Z,77.15
2018-09-15T04:21:43.269Z,76.77
2018-09-15T04:24:11.638Z,77.00
2018-09-15T04:26:39.907Z,76.84
2018-09-15T04:29:09.875Z,76.37
2018-09-15T04:31:38.147Z,76.20
2018-09-15T04:34:06.416Z,76.29
2018-09-15T04:36:34.692Z,76.03
2018-09-15T04:39:04.911Z,74.87
2018-09-15T04:41:33.440Z,74.41
2018-09-15T04:44:02.372Z,75.67
2018-09-15T04:46:31.072Z,74.80
2018-09-15T04:48:59.862Z,74.10
2018-09-15T04:51:28.061Z,74.18
2018-09-15T04:53:56.608Z,74.37
2018-09-15T04:56:25.067Z,73.74
2018-09-15T04:58:53.568Z,73.99
2018-09-15T05:01:22.078Z,74.60
2018-09-15T05:03:51.522Z,73.71
2018-09-15T05:06:21.288Z,73.84
2018-09-15T05:08:49.630Z,73.73
2018-09-15T05:11:18.529Z,73.17
2018-09-15T05:13:46.824Z,72.47
2018-09-15T05:16:15.632Z,73.22
2018-09-15T05:18:44.775Z,72.84
2018-09-15T05:21:13.433Z,72.37
2018-09-15T05:23:42.296Z,72.95
2018-09-15T05:26:10.655Z,72.01
2018-09-15T05:28:39.166Z,72.21
2018-09-15T05:31:08.361Z,72.30
2018-09-15T05:33:36.868Z,72.28
2018-09-15T05:36:05.170Z,71.36
2018-09-15T05:38:33.392Z,71.37
2018-09-15T05:41:02.024Z,71.80
2018-09-15T05:43:30.906Z,71.27
2018-09-15T05:45:59.104Z,70.08
2018-09-15T05:48:27.346Z,69.76
2018-09-15T05:50:56.164Z,70.12
2018-09-15T05:53:24.743Z,70.97
2018-09-15T05:55:53.054Z,70.16
2018-09-15T05:58:22.421Z,71.43
2018-09-15T06:00:51.771Z,70.44
2018-09-15T06:03:20.531Z,70.19
2018-09-15T06:05:49.386Z,70.98
2018-09-15T06:08:19.565Z,71.40
2018-09-15T06:10:48.803Z,71.75
2018-09-15T06:13:18.446Z,72.38
2018-09-15T06:15:46.749Z,72.12
2018-09-15T06:18:15.572Z,72.56
2018-09-15T06:20:44.683Z,72.53
2018-09-15T06:23:12.939Z,72.81
2018-09-15T06:25:42.038Z,71.99
2018-09-15T06:28:10.592Z,72.85
2018-09-15T06:30:38.879Z,72.55
2018-09-15T06:33:07.141Z,72.87
2018-09-15T06:35:36.045Z,72.79
2018-09-15T06:38:05.688Z,72.34
2018-09-15T06:40:34.543Z,72.68
2018-09-15T06:43:03.845Z,71.37
2018-09-15T06:45:32.249Z,71.26
2018-09-15T06:48:01.232Z,71.62
2018-09-15T06:50:29.557Z,71.93
2018-09-15T06:52:58.142Z,71.17
2018-09-15T06:55:26.656Z,71.15
2018-09-15T06:57:55.467Z,69.60
2018-09-15T07:00:24.593Z,69.08
2018-09-15T07:02:53.721Z,68.70
2018-09-15T07:05:22.377Z,67.97
2018-09-15T07:07:51.186Z,67.58
2018-09-15T07:10:19.819Z,67.07
2018-09-15T07:12:48.028Z,65.68
2018-09-15T07:15:16.358Z,66.03
2018-09-15T07:17:44.870Z,64.50
2018-09-15T07:20:13.862Z,65.28
2018-09-15T07:22:42.147Z,65.04
2018-09-15T07:25:10.701Z,63.83
2018-09-15T07:27:38.981Z,62.88
2018-09-15T07:30:07.259Z,63.08
2018-09-15T07:32:35.472Z,61.39
2018-09-15T07:35:03.736Z,62.58
2018-09-15T07:37:32.371Z,62.12
2018-09-15T07:40:01.411Z,60.16
2018-09-15T07:42:30.615Z,58.65
2018-09-15T07:44:59.471Z,56.98
2018-09-15T07:47:28.114Z,55.57
2018-09-15T07:49:56.744Z,54.94
2018-09-15T07:52:25.366Z,54.71
2018-09-15T07:54:54.312Z,54.84
2018-09-15T07:57:22.947Z,53.70
2018-09-15T07:59:51.969Z,52.20
2018-09-15T08:02:21.524Z,51.17
2018-09-15T08:04:51.077Z,50.18
2018-09-15T08:07:19.434Z,49.99
2018-09-15T08:09:47.952Z,49.50
2018-09-15T08:12:18.049Z,49.39
2018-09-15T08:14:46.800Z,49.38
2018-09-15T08:17:15.617Z,49.40
2018-09-15T08:19:44.598Z,49.74
2018-09-15T08:22:12.980Z,48.53
2018-09-15T08:24:42.265Z,49.34
2018-09-15T08:27:13.418Z,48.38
2018-09-15T08:29:42.847Z,48.19
2018-09-15T08:32:12.501Z,48.82
2018-09-15T08:34:40.996Z,49.22
2018-09-15T08:42:06.707Z,48.99
2018-09-15T08:44:35.393Z,47.64
2018-09-15T08:47:03.697Z,47.23
2018-09-15T08:49:32.956Z,47.61
2018-09-15T08:52:01.474Z,47.76
2018-09-15T08:54:30.079Z,47.27
2018-09-15T08:56:59.060Z,45.60
2018-09-15T08:59:27.272Z,45.74
2018-09-15T09:01:55.953Z,46.00
2018-09-15T09:04:24.234Z,45.34
2018-09-15T09:06:54.002Z,46.63
2018-09-15T09:09:22.473Z,43.99
2018-09-15T09:11:50.687Z,44.02
2018-09-15T09:14:19.290Z,43.42
2018-09-15T09:16:49.744Z,43.33
2018-09-15T09:19:18.861Z,42.75
2018-09-15T09:21:47.579Z,43.69
2018-09-15T09:24:17.497Z,43.38
2018-09-15T09:26:46.756Z,43.62
2018-09-15T09:29:15.093Z,43.99
2018-09-15T09:31:43.388Z,42.11
2018-09-15T09:34:12.230Z,43.10
2018-09-15T09:36:40.783Z,41.94
2018-09-15T09:39:11.014Z,41.99
2018-09-15T09:41:39.397Z,41.99
2018-09-15T09:44:07.867Z,41.19
2018-09-15T09:46:36.924Z,40.55
2018-09-15T09:49:06.165Z,41.57
2018-09-15T09:51:34.548Z,41.62
2018-09-15T09:54:04.319Z,41.19
2018-09-15T09:56:32.980Z,40.69
2018-09-15T09:59:01.332Z,40.79
2018-09-15T10:01:34.226Z,41.13
2018-09-15T10:04:03.996Z,41.80
2018-09-15T10:06:32.548Z,42.02
2018-09-15T10:09:00.836Z,41.27
2018-09-15T10:11:29.152Z,41.21
2018-09-15T10:13:57.713Z,40.72
2018-09-15T10:16:26.892Z,39.77
2018-09-15T10:18:55.185Z,39.18
2018-09-15T10:21:23.554Z,38.88
2018-09-15T10:23:51.824Z,39.97
2018-09-15T10:26:20.312Z,40.35
2018-09-15T10:28:48.834Z,40.04
2018-09-15T10:31:17.369Z,40.34
2018-09-15T10:33:47.289Z,39.25
2018-09-15T10:36:15.795Z,40.13
2018-09-15T10:38:44.687Z,39.01
2018-09-15T10:41:13.135Z,39.04
2018-09-15T10:43:41.373Z,38.79
2018-09-15T10:46:09.935Z,38.34
2018-09-15T10:48:38.173Z,37.58
2018-09-15T10:51:06.415Z,38.36
2018-09-15T10:53:35.293Z,38.92
2018-09-15T10:56:03.892Z,38.86
2018-09-15T10:58:32.185Z,39.04
2018-09-15T11:01:00.471Z,39.08
2018-09-15T11:03:28.698Z,39.91
2018-09-15T11:05:57.252Z,39.55
2018-09-15T11:08:26.212Z,39.63
2018-09-15T11:10:54.489Z,38.85
2018-09-15T11:13:23.344Z,37.20
2018-09-15T11:15:53.120Z,38.42
2018-09-15T11:18:21.541Z,37.36
2018-09-15T11:20:49.832Z,36.86
2018-09-15T11:23:18.017Z,37.21
2018-09-15T11:25:46.304Z,36.48
2018-09-15T11:28:14.504Z,37.78
2018-09-15T11:30:43.203Z,38.73
2018-09-15T11:33:11.758Z,39.83
2018-09-15T11:35:40.436Z,40.32
2018-09-15T11:38:08.752Z,40.62
2018-09-15T11:40:37.331Z,39.90
2018-09-15T11:43:06.148Z,39.07
2018-09-15T11:45:34.756Z,37.52
2018-09-15T11:48:04.240Z,36.13
2018-09-15T11:50:32.818Z,36.80
2018-09-15T11:53:02.568Z,37.55
2018-09-15T11:55:30.888Z,37.30
2018-09-15T11:57:59.662Z,36.48
2018-09-15T12:00:32.895Z,35.54
2018-09-15T12:03:05.139Z,36.21
2018-09-15T12:05:33.742Z,36.37
2018-09-15T12:08:02.236Z,37.29
2018-09-15T12:10:31.662Z,37.65
2018-09-15T12:13:00.222Z,37.17
2018-09-15T12:15:28.396Z,36.44
2018-09-15T12:17:56.717Z,35.94
2018-09-15T12:20:25.428Z,35.45
2018-09-15T12:22:55.149Z,34.90
2018-09-15T12:25:23.992Z,34.94
2018-09-15T12:27:52.531Z,34.88
2018-09-15T12:30:20.781Z,34.03
2018-09-15T12:32:49.300Z,33.69
2018-09-15T12:35:17.923Z,34.22
2018-09-15T12:37:46.170Z,34.01
2018-09-15T12:40:14.473Z,32.95
2018-09-15T12:42:42.774Z,32.46
2018-09-15T12:45:11.108Z,32.86
2018-09-15T12:47:39.734Z,33.13
2018-09-15T12:50:08.909Z,32.20
2018-09-15T12:52:37.190Z,32.89
2018-09-15T12:55:05.805Z,32.18
2018-09-15T12:57:34.161Z,31.97
2018-09-15T13:00:02.428Z,31.76
2018-09-15T13:02:30.784Z,31.41
2018-09-15T13:04:59.519Z,31.00
2018-09-15T13:07:28.352Z,31.95
2018-09-15T13:09:56.857Z,31.26
2018-09-15T13:12:26.185Z,30.30
2018-09-15T13:14:54.421Z,29.22
2018-09-15T13:17:22.951Z,27.01
2018-09-15T13:19:51.244Z,25.06
2018-09-15T13:22:19.644Z,24.28
2018-09-15T13:24:48.070Z,22.39
2018-09-15T13:27:16.791Z,21.72
2018-09-15T13:29:45.830Z,21.64
2018-09-15T13:32:14.454Z,23.94
2018-09-15T13:34:42.661Z,24.96
2018-09-15T13:37:10.934Z,23.51
2018-09-15T13:39:39.161Z,20.85
2018-09-15T13:42:08.028Z,18.58
2018-09-15T13:44:36.856Z,19.16
2018-09-15T13:47:05.393Z,18.71
2018-09-15T13:49:35.376Z,19.00
2018-09-15T13:52:03.693Z,18.33
2018-09-15T13:54:32.541Z,17.82
2018-09-15T13:57:01.114Z,17.54
2018-09-15T13:59:29.648Z,18.77
2018-09-15T14:01:58.152Z,18.93
2018-09-15T14:04:26.648Z,18.11
2018-09-15T14:06:55.404Z,16.94
2018-09-15T14:09:24.218Z,17.31
2018-09-15T14:11:52.483Z,16.80
2018-09-15T14:14:20.660Z,16.12
2018-09-15T14:16:49.575Z,16.87
2018-09-15T14:19:17.983Z,17.29
2018-09-15T14:21:47.224Z,18.14
2018-09-15T14:24:15.732Z,16.35
2018-09-15T14:26:44.515Z,15.87
2018-09-15T14:29:12.986Z,15.60
2018-09-15T14:31:45.545Z,17.22
2018-09-15T14:34:13.711Z,17.19
2018-09-15T14:36:41.923Z,16.65
2018-09-15T14:39:11.353Z,17.30
2018-09-15T14:41:40.980Z,17.80
2018-09-15T14:44:09.805Z,17.07
2018-09-15T14:46:38.208Z,16.45
2018-09-15T14:49:06.506Z,16.07
2018-09-15T14:51:35.882Z,17.89
2018-09-15T14:54:04.192Z,16.98
2018-09-15T14:56:32.430Z,16.88
2018-09-15T14:59:00.640Z,17.00
2018-09-15T15:01:29.407Z,17.19
2018-09-15T15:03:58.150Z,15.41
2018-09-15T15:06:26.623Z,17.07
2018-09-15T15:08:55.880Z,17.25
2018-09-15T15:11:25.183Z,17.37
2018-09-15T15:13:53.346Z,17.88
2018-09-15T15:16:21.630Z,16.49
2018-09-15T15:18:50.679Z,16.94
2018-09-15T15:21:18.922Z,17.74
2018-09-15T15:23:47.536Z,16.74
2018-09-15T15:26:16.190Z,16.66
2018-09-15T15:28:44.392Z,17.40
2018-09-15T15:31:12.668Z,17.60
2018-09-15T15:33:40.889Z,16.52
2018-09-15T15:36:09.448Z,16.64
2018-09-15T15:38:38.637Z,17.34
2018-09-15T15:41:07.042Z,17.39
2018-09-15T15:43:35.645Z,17.83
2018-09-15T15:46:03.827Z,16.22
2018-09-15T15:48:32.584Z,17.60
2018-09-15T15:51:05.328Z,17.52
2018-09-15T15:53:35.820Z,18.13
2018-09-15T15:56:04.419Z,16.49
2018-09-15T15:58:32.734Z,17.05
2018-09-15T16:01:01.574Z,18.12
2018-09-15T16:03:29.894Z,18.84
2018-09-15T16:05:58.071Z,18.15
2018-09-15T16:08:26.234Z,18.30
2018-09-15T16:10:54.743Z,19.38
2018-09-15T16:13:22.927Z,20.17
2018-09-15T16:15:51.155Z,20.86
2018-09-15T16:18:19.340Z,20.91
2018-09-15T16:20:48.433Z,20.99
2018-09-15T16:23:17.172Z,21.41
2018-09-15T16:25:45.708Z,20.56
2018-09-15T16:28:16.420Z,22.00
2018-09-15T16:30:45.241Z,19.92
2018-09-15T16:33:13.454Z,20.22
2018-09-15T16:35:46.677Z,22.58
2018-09-15T16:38:15.972Z,25.91
2018-09-15T16:40:44.402Z,25.96
2018-09-15T16:43:12.537Z,24.82
2018-09-15T16:45:41.513Z,24.22
2018-09-15T16:48:09.914Z,24.12
2018-09-15T16:50:40.699Z,26.27
2018-09-15T16:53:09.200Z,28.37
2018-09-15T16:55:37.466Z,30.85
2018-09-15T16:58:05.863Z,32.14
2018-09-15T17:00:34.379Z,33.33
2018-09-15T17:03:03.863Z,34.26
2018-09-15T17:05:32.660Z,34.95
2018-09-15T17:08:01.200Z,35.62
2018-09-15T17:10:29.516Z,36.18
2018-09-15T17:12:58.858Z,36.70
2018-09-15T17:15:27.258Z,37.15
2018-09-15T17:17:55.517Z,37.44
2018-09-15T17:20:24.536Z,38.16
2018-09-15T17:22:52.803Z,38.61
2018-09-15T17:25:21.094Z,38.87
2018-09-15T17:27:49.719Z,39.45
2018-09-15T17:30:18.660Z,40.08
2018-09-15T17:32:48.339Z,40.83
2018-09-15T17:35:16.584Z,41.07
2018-09-15T17:37:45.568Z,41.35
2018-09-15T17:40:14.021Z,41.67
2018-09-15T17:42:42.319Z,41.63
2018-09-15T17:45:11.151Z,41.94
2018-09-15T17:47:39.959Z,42.54
2018-09-15T17:50:08.605Z,42.87
2018-09-15T17:52:38.381Z,43.11
2018-09-15T17:55:06.930Z,44.13
2018-09-15T17:57:35.552Z,43.85
2018-09-15T18:00:04.106Z,44.37
2018-09-15T18:02:32.798Z,44.31
2018-09-15T18:05:01.192Z,44.81
2018-09-15T18:07:30.033Z,45.54
2018-09-15T18:09:58.459Z,45.80
2018-09-15T18:12:26.720Z,46.29
2018-09-15T18:14:55.338Z,46.83
2018-09-15T18:17:23.814Z,46.93
2018-09-15T18:19:52.810Z,46.54
2018-09-15T18:22:21.085Z,46.86
2018-09-15T18:24:51.508Z,47.94
2018-09-15T18:27:22.877Z,47.80
2018-09-15T18:29:51.224Z,47.83
2018-09-15T18:32:19.790Z,48.21
2018-09-15T18:34:48.123Z,47.99
2018-09-15T18:37:16.522Z,47.74
2018-09-15T18:39:44.999Z,48.11
2018-09-15T18:42:15.815Z,48.25
2018-09-15T18:44:44.304Z,48.51
2018-09-15T18:47:12.645Z,48.79
2018-09-15T18:49:40.987Z,48.78
2018-09-15T18:52:09.980Z,48.97
2018-09-15T18:54:38.697Z,49.49
2018-09-15T18:57:07.576Z,49.37
2018-09-15T18:59:35.832Z,50.11
2018-09-15T19:02:04.320Z,50.39
2018-09-15T19:04:32.643Z,50.22
2018-09-15T19:07:00.916Z,51.59
2018-09-15T19:09:29.284Z,51.72
2018-09-15T19:11:58.341Z,51.97
2018-09-15T19:14:27.348Z,52.23
2018-09-15T19:16:55.719Z,51.57
2018-09-15T19:19:24.267Z,51.73
2018-09-15T19:21:53.766Z,51.69
2018-09-15T19:24:22.305Z,52.35
2018-09-15T19:26:51.238Z,53.47
2018-09-15T19:29:19.796Z,53.21
2018-09-15T19:31:49.119Z,53.78
2018-09-15T19:34:17.892Z,54.00
2018-09-15T19:36:47.593Z,53.88
2018-09-15T19:39:16.183Z,54.59
2018-09-15T19:41:44.941Z,55.38
2018-09-15T19:44:13.664Z,55.38
2018-09-15T19:46:43.297Z,56.00
2018-09-15T19:49:12.736Z,55.51
2018-09-15T19:51:41.223Z,56.22
2018-09-15T19:54:09.966Z,56.50
2018-09-15T19:56:39.073Z,55.64
2018-09-15T19:59:08.771Z,55.90
2018-09-15T20:01:38.709Z,55.72
2018-09-15T20:04:07.411Z,56.49
2018-09-15T20:06:36.190Z,56.09
2018-09-15T20:09:07.369Z,55.78
2018-09-15T20:11:35.937Z,57.06
2018-09-15T20:14:04.268Z,57.34
2018-09-15T20:16:31.130Z,57.33
2018-09-15T20:18:58.404Z,58.11
2018-09-15T20:21:25.528Z,58.21
2018-09-15T20:23:54.583Z,57.95
2018-09-15T20:26:23.038Z,57.39
2018-09-15T20:28:52.398Z,58.07
2018-09-15T20:31:21.459Z,58.49
2018-09-15T20:33:50.793Z,58.08
2018-09-15T20:36:20.317Z,57.51
2018-09-15T20:38:48.902Z,58.43
2018-09-15T20:41:17.761Z,58.41
2018-09-15T20:43:46.000Z,58.19
2018-09-15T20:46:14.535Z,58.39
2018-09-15T20:48:43.527Z,58.90
2018-09-15T20:51:12.333Z,58.92
2018-09-15T20:53:40.821Z,59.24
2018-09-15T20:56:12.032Z,59.16
2018-09-15T20:58:40.264Z,59.12
2018-09-15T21:01:08.641Z,59.63
2018-09-15T21:03:37.734Z,59.82
2018-09-15T21:06:06.683Z,60.23
2018-09-15T21:08:35.003Z,59.76
2018-09-15T21:11:04.046Z,60.24
2018-09-15T21:13:33.197Z,61.05
2018-09-15T21:16:02.179Z,61.23
2018-09-15T21:18:30.754Z,60.63
2018-09-15T21:20:59.428Z,61.09
2018-09-15T21:23:28.811Z,61.39
2018-09-15T21:25:57.691Z,62.26
2018-09-15T21:28:25.937Z,63.14
2018-09-15T21:30:55.884Z,63.16
2018-09-15T21:33:24.413Z,64.31
2018-09-15T21:35:52.609Z,64.56
2018-09-15T21:38:21.493Z,64.91
2018-09-15T21:40:50.025Z,64.66
2018-09-15T21:43:18.424Z,64.98
2018-09-15T21:45:46.776Z,64.31
2018-09-15T21:48:15.562Z,64.31
2018-09-15T21:50:43.876Z,64.09
2018-09-15T21:53:12.610Z,64.51
2018-09-15T21:55:40.874Z,64.81
2018-09-15T21:58:09.161Z,65.49
2018-09-15T22:00:37.674Z,65.78
2018-09-15T22:03:06.486Z,65.39
2018-09-15T22:05:34.748Z,65.89
2018-09-15T22:08:02.934Z,66.10
2018-09-15T22:10:31.465Z,65.94
2018-09-15T22:12:59.964Z,66.33
2018-09-15T22:15:28.222Z,66.02
2018-09-15T22:17:57.589Z,65.50
2018-09-15T22:20:26.519Z,66.25
2018-09-15T22:22:55.040Z,66.22
2018-09-15T22:25:24.404Z,66.25
2018-09-15T22:27:53.298Z,67.01
2018-09-15T22:30:21.927Z,65.93
2018-09-15T22:32:50.884Z,66.67
2018-09-15T22:35:19.711Z,66.29
2018-09-15T22:37:48.804Z,66.98
2018-09-15T22:40:17.428Z,67.52
2018-09-15T22:42:45.635Z,68.27
2018-09-15T22:45:14.162Z,68.50
2018-09-15T22:47:42.357Z,68.69
2018-09-15T22:50:11.132Z,68.16
2018-09-15T22:52:39.980Z,67.88
2018-09-15T22:55:08.864Z,68.23
2018-09-15T22:57:37.093Z,67.87
2018-09-15T23:00:05.911Z,68.25
2018-09-15T23:02:34.400Z,68.38
2018-09-15T23:05:02.872Z,68.83
2018-09-15T23:07:31.390Z,68.93
2018-09-15T23:09:59.901Z,68.74
2018-09-15T23:12:28.626Z,68.67
2018-09-15T23:14:57.110Z,69.04
2018-09-15T23:17:25.645Z,69.40
2018-09-15T23:19:54.472Z,69.78
2018-09-15T23:22:23.403Z,70.16
2018-09-15T23:24:51.765Z,70.58
2018-09-15T23:27:20.013Z,71.04
2018-09-15T23:29:48.583Z,70.79
2018-09-15T23:32:17.045Z,70.57
2018-09-15T23:34:45.269Z,71.11
2018-09-15T23:37:13.876Z,71.05
2018-09-15T23:39:42.374Z,70.44
2018-09-15T23:42:10.582Z,70.48
2018-09-15T23:44:38.952Z,70.89
2018-09-15T23:47:07.461Z,70.56
2018-09-15T23:49:35.976Z,70.41
2018-09-15T23:52:04.556Z,70.96
2018-09-15T23:54:33.087Z,71.28
2018-09-15T23:57:01.678Z,70.77
2018-09-15T23:59:29.885Z,71.26
